sensor_id;sensor_type;location;lat;lon;timestamp;pressure;altitude;pressure_sealevel;temperature;humidity
15670;BME280;18524;45.190;5.732;2023-10-31T00:01:02;98190.91;;;12.97;100.00
15670;BME280;18524;45.190;5.732;2023-10-31T00:05:53;98187.75;;;12.85;100.00
15670;BME280;18524;45.190;5.732;2023-10-31T00:10:43;98191.72;;;12.89;100.00
15670;BME280;18524;45.190;5.732;2023-10-31T00:15:34;98181.84;;;12.91;100.00
15670;BME280;18524;45.190;5.732;2023-10-31T00:20:25;98203.41;;;12.95;100.00
15670;BME280;18524;45.190;5.732;2023-10-31T00:25:15;98209.97;;;12.99;100.00
15670;BME280;18524;45.190;5.732;2023-10-31T00:30:06;98208.00;;;12.93;100.00
15670;BME280;18524;45.190;5.732;2023-10-31T00:34:56;98226.41;;;12.84;100.00
15670;BME280;18524;45.190;5.732;2023-10-31T00:39:47;98234.91;;;12.70;100.00
15670;BME280;18524;45.190;5.732;2023-10-31T00:44:37;98231.97;;;12.73;100.00
15670;BME280;18524;45.190;5.732;2023-10-31T00:49:27;98236.09;;;12.76;100.00
15670;BME280;18524;45.190;5.732;2023-10-31T00:54:18;98248.09;;;12.78;100.00
15670;BME280;18524;45.190;5.732;2023-10-31T00:59:08;98251.22;;;12.82;100.00
15670;BME280;18524;45.190;5.732;2023-10-31T01:03:58;98261.59;;;12.83;100.00
15670;BME280;18524;45.190;5.732;2023-10-31T01:08:49;98258.81;;;12.93;100.00
15670;BME280;18524;45.190;5.732;2023-10-31T01:13:39;98266.88;;;12.92;100.00
15670;BME280;18524;45.190;5.732;2023-10-31T01:18:29;98264.88;;;12.86;100.00
15670;BME280;18524;45.190;5.732;2023-10-31T01:23:19;98269.97;;;12.79;100.00
15670;BME280;18524;45.190;5.732;2023-10-31T01:28:10;98271.28;;;12.83;100.00
15670;BME280;18524;45.190;5.732;2023-10-31T01:33:00;98276.84;;;12.72;100.00
15670;BME280;18524;45.190;5.732;2023-10-31T01:37:50;98282.28;;;12.70;100.00
15670;BME280;18524;45.190;5.732;2023-10-31T01:42:41;98282.28;;;12.70;100.00
15670;BME280;18524;45.190;5.732;2023-10-31T01:47:32;98286.88;;;12.68;100.00
15670;BME280;18524;45.190;5.732;2023-10-31T01:52:22;98297.56;;;12.67;100.00
15670;BME280;18524;45.190;5.732;2023-10-31T01:57:13;98311.69;;;12.66;100.00
15670;BME280;18524;45.190;5.732;2023-10-31T02:02:05;98309.88;;;12.66;100.00
15670;BME280;18524;45.190;5.732;2023-10-31T02:06:55;98316.72;;;12.59;100.00
15670;BME280;18524;45.190;5.732;2023-10-31T02:11:46;98314.25;;;12.58;100.00
15670;BME280;18524;45.190;5.732;2023-10-31T02:16:36;98312.59;;;12.57;100.00
15670;BME280;18524;45.190;5.732;2023-10-31T02:21:27;98325.88;;;12.47;100.00
15670;BME280;18524;45.190;5.732;2023-10-31T02:26:18;98339.66;;;12.41;100.00
15670;BME280;18524;45.190;5.732;2023-10-31T02:31:09;98351.50;;;12.45;100.00
15670;BME280;18524;45.190;5.732;2023-10-31T02:35:59;98354.16;;;12.53;100.00
15670;BME280;18524;45.190;5.732;2023-10-31T02:40:49;98346.28;;;12.53;100.00
15670;BME280;18524;45.190;5.732;2023-10-31T02:45:39;98347.56;;;12.49;100.00
15670;BME280;18524;45.190;5.732;2023-10-31T02:50:30;98344.13;;;12.48;100.00
15670;BME280;18524;45.190;5.732;2023-10-31T02:55:20;98352.53;;;12.52;100.00
15670;BME280;18524;45.190;5.732;2023-10-31T03:00:11;98359.44;;;12.53;100.00
15670;BME280;18524;45.190;5.732;2023-10-31T03:05:01;98359.13;;;12.56;100.00
15670;BME280;18524;45.190;5.732;2023-10-31T03:09:52;98358.28;;;12.56;100.00
15670;BME280;18524;45.190;5.732;2023-10-31T03:14:44;98352.72;;;12.59;100.00
15670;BME280;18524;45.190;5.732;2023-10-31T03:19:34;98361.06;;;12.54;100.00
15670;BME280;18524;45.190;5.732;2023-10-31T03:24:25;98363.03;;;12.52;100.00
15670;BME280;18524;45.190;5.732;2023-10-31T03:29:15;98361.75;;;12.56;100.00
15670;BME280;18524;45.190;5.732;2023-10-31T03:34:05;98369.13;;;12.52;100.00
15670;BME280;18524;45.190;5.732;2023-10-31T03:38:56;98377.53;;;12.56;100.00
15670;BME280;18524;45.190;5.732;2023-10-31T03:43:46;98374.59;;;12.59;100.00
15670;BME280;18524;45.190;5.732;2023-10-31T03:48:37;98384.88;;;12.70;100.00
15670;BME280;18524;45.190;5.732;2023-10-31T03:53:27;98393.06;;;12.67;100.00
15670;BME280;18524;45.190;5.732;2023-10-31T03:58:17;98393.75;;;12.69;100.00
15670;BME280;18524;45.190;5.732;2023-10-31T04:03:08;98388.63;;;12.68;100.00
15670;BME280;18524;45.190;5.732;2023-10-31T04:07:58;98391.59;;;12.65;100.00
15670;BME280;18524;45.190;5.732;2023-10-31T04:12:49;98412.38;;;12.58;100.00
15670;BME280;18524;45.190;5.732;2023-10-31T04:17:39;98414.03;;;12.59;100.00
15670;BME280;18524;45.190;5.732;2023-10-31T04:22:30;98414.03;;;12.59;100.00
15670;BME280;18524;45.190;5.732;2023-10-31T04:27:20;98413.06;;;12.60;100.00
15670;BME280;18524;45.190;5.732;2023-10-31T04:32:11;98408.09;;;12.57;100.00
15670;BME280;18524;45.190;5.732;2023-10-31T04:37:01;98410.22;;;12.53;100.00
15670;BME280;18524;45.190;5.732;2023-10-31T04:41:52;98400.53;;;12.54;100.00
15670;BME280;18524;45.190;5.732;2023-10-31T04:46:42;98408.53;;;12.44;100.00
15670;BME280;18524;45.190;5.732;2023-10-31T04:51:37;98400.44;;;12.38;100.00
15670;BME280;18524;45.190;5.732;2023-10-31T04:56:27;98391.94;;;12.44;100.00
15670;BME280;18524;45.190;5.732;2023-10-31T05:01:18;98391.03;;;12.35;100.00
15670;BME280;18524;45.190;5.732;2023-10-31T05:06:09;98403.97;;;12.29;100.00
15670;BME280;18524;45.190;5.732;2023-10-31T05:10:59;98389.84;;;12.30;100.00
15670;BME280;18524;45.190;5.732;2023-10-31T05:15:50;98391.00;;;12.27;100.00
15670;BME280;18524;45.190;5.732;2023-10-31T05:20:40;98392.50;;;12.30;100.00
15670;BME280;18524;45.190;5.732;2023-10-31T05:25:31;98394.88;;;12.23;100.00
15670;BME280;18524;45.190;5.732;2023-10-31T05:30:21;98415.91;;;12.23;100.00
15670;BME280;18524;45.190;5.732;2023-10-31T05:35:12;98415.47;;;12.28;100.00
15670;BME280;18524;45.190;5.732;2023-10-31T05:40:02;98413.94;;;12.25;100.00
15670;BME280;18524;45.190;5.732;2023-10-31T05:44:54;98418.63;;;12.31;100.00
15670;BME280;18524;45.190;5.732;2023-10-31T05:49:44;98429.97;;;12.32;100.00
15670;BME280;18524;45.190;5.732;2023-10-31T05:54:34;98424.56;;;12.33;100.00
15670;BME280;18524;45.190;5.732;2023-10-31T05:59:25;98433.56;;;12.31;100.00
15670;BME280;18524;45.190;5.732;2023-10-31T06:04:15;98439.41;;;12.25;100.00
15670;BME280;18524;45.190;5.732;2023-10-31T06:09:06;98446.03;;;12.29;100.00
15670;BME280;18524;45.190;5.732;2023-10-31T06:13:56;98450.38;;;12.20;100.00
15670;BME280;18524;45.190;5.732;2023-10-31T06:18:46;98470.28;;;12.23;100.00
15670;BME280;18524;45.190;5.732;2023-10-31T06:23:37;98468.06;;;12.28;100.00
15670;BME280;18524;45.190;5.732;2023-10-31T06:28:28;98474.28;;;12.27;100.00
15670;BME280;18524;45.190;5.732;2023-10-31T06:33:18;98483.69;;;12.29;100.00
15670;BME280;18524;45.190;5.732;2023-10-31T06:38:09;98490.06;;;12.27;100.00
15670;BME280;18524;45.190;5.732;2023-10-31T06:42:59;98493.38;;;12.29;100.00
15670;BME280;18524;45.190;5.732;2023-10-31T06:47:49;98507.25;;;12.21;100.00
15670;BME280;18524;45.190;5.732;2023-10-31T06:52:39;98515.38;;;12.28;100.00
15670;BME280;18524;45.190;5.732;2023-10-31T06:57:30;98522.06;;;12.40;100.00
15670;BME280;18524;45.190;5.732;2023-10-31T07:02:20;98525.97;;;12.36;100.00
15670;BME280;18524;45.190;5.732;2023-10-31T07:07:11;98525.66;;;12.39;100.00
15670;BME280;18524;45.190;5.732;2023-10-31T07:12:01;98531.22;;;12.36;100.00
15670;BME280;18524;45.190;5.732;2023-10-31T07:16:52;98544.00;;;12.31;100.00
15670;BME280;18524;45.190;5.732;2023-10-31T07:21:42;98547.59;;;12.30;100.00
15670;BME280;18524;45.190;5.732;2023-10-31T07:26:32;98553.91;;;12.37;100.00
15670;BME280;18524;45.190;5.732;2023-10-31T07:31:23;98564.66;;;12.43;100.00
15670;BME280;18524;45.190;5.732;2023-10-31T07:36:13;98563.38;;;12.47;100.00
15670;BME280;18524;45.190;5.732;2023-10-31T07:41:04;98547.44;;;12.49;100.00
15670;BME280;18524;45.190;5.732;2023-10-31T07:45:55;98571.72;;;12.61;100.00
15670;BME280;18524;45.190;5.732;2023-10-31T07:50:45;98574.19;;;12.62;100.00
15670;BME280;18524;45.190;5.732;2023-10-31T07:55:36;98571.81;;;12.69;100.00
15670;BME280;18524;45.190;5.732;2023-10-31T08:00:26;98569.56;;;12.74;100.00
15670;BME280;18524;45.190;5.732;2023-10-31T08:05:17;98565.19;;;12.82;100.00
15670;BME280;18524;45.190;5.732;2023-10-31T08:10:07;98563.75;;;12.88;100.00
15670;BME280;18524;45.190;5.732;2023-10-31T08:14:58;98575.09;;;12.89;100.00
15670;BME280;18524;45.190;5.732;2023-10-31T08:19:51;98580.72;;;12.94;100.00
15670;BME280;18524;45.190;5.732;2023-10-31T08:24:41;98592.84;;;12.87;100.00
15670;BME280;18524;45.190;5.732;2023-10-31T08:29:32;98589.38;;;12.86;100.00
15670;BME280;18524;45.190;5.732;2023-10-31T08:34:22;98583.81;;;12.89;100.00
15670;BME280;18524;45.190;5.732;2023-10-31T08:39:13;98587.50;;;12.78;100.00
15670;BME280;18524;45.190;5.732;2023-10-31T08:44:03;98597.56;;;12.83;100.00
15670;BME280;18524;45.190;5.732;2023-10-31T08:48:53;98599.59;;;12.89;100.00
15670;BME280;18524;45.190;5.732;2023-10-31T08:53:44;98603.44;;;12.95;100.00
15670;BME280;18524;45.190;5.732;2023-10-31T08:58:34;98607.19;;;12.92;100.00
15670;BME280;18524;45.190;5.732;2023-10-31T09:03:24;98625.69;;;13.00;100.00
15670;BME280;18524;45.190;5.732;2023-10-31T09:08:15;98627.94;;;13.13;100.00
15670;BME280;18524;45.190;5.732;2023-10-31T09:13:05;98640.13;;;13.32;100.00
15670;BME280;18524;45.190;5.732;2023-10-31T09:17:55;98637.63;;;13.48;100.00
15670;BME280;18524;45.190;5.732;2023-10-31T09:22:46;98656.78;;;13.58;100.00
15670;BME280;18524;45.190;5.732;2023-10-31T09:27:39;98659.38;;;13.50;100.00
15670;BME280;18524;45.190;5.732;2023-10-31T09:32:30;98672.19;;;13.45;100.00
15670;BME280;18524;45.190;5.732;2023-10-31T09:37:20;98673.69;;;13.48;100.00
15670;BME280;18524;45.190;5.732;2023-10-31T09:42:10;98670.84;;;13.41;100.00
15670;BME280;18524;45.190;5.732;2023-10-31T09:47:01;98673.53;;;13.49;100.00
15670;BME280;18524;45.190;5.732;2023-10-31T09:51:51;98680.25;;;13.43;100.00
15670;BME280;18524;45.190;5.732;2023-10-31T09:56:42;98687.28;;;13.61;100.00
15670;BME280;18524;45.190;5.732;2023-10-31T10:01:33;98696.28;;;13.76;100.00
15670;BME280;18524;45.190;5.732;2023-10-31T10:06:24;98697.88;;;13.95;100.00
15670;BME280;18524;45.190;5.732;2023-10-31T10:11:15;98701.31;;;14.21;100.00
15670;BME280;18524;45.190;5.732;2023-10-31T10:16:06;98708.31;;;14.38;100.00
15670;BME280;18524;45.190;5.732;2023-10-31T10:20:58;98724.41;;;14.53;100.00
15670;BME280;18524;45.190;5.732;2023-10-31T10:25:49;98720.84;;;14.70;100.00
15670;BME280;18524;45.190;5.732;2023-10-31T10:30:40;98732.56;;;14.76;100.00
15670;BME280;18524;45.190;5.732;2023-10-31T10:35:31;98742.63;;;14.73;100.00
15670;BME280;18524;45.190;5.732;2023-10-31T10:40:21;98722.16;;;14.66;100.00
15670;BME280;18524;45.190;5.732;2023-10-31T10:45:14;98726.94;;;14.71;100.00
15670;BME280;18524;45.190;5.732;2023-10-31T10:50:06;98742.63;;;14.73;100.00
15670;BME280;18524;45.190;5.732;2023-10-31T10:55:09;98736.69;;;14.70;100.00
15670;BME280;18524;45.190;5.732;2023-10-31T11:00:04;98737.38;;;14.81;100.00
15670;BME280;18524;45.190;5.732;2023-10-31T11:04:55;98731.66;;;14.93;100.00
15670;BME280;18524;45.190;5.732;2023-10-31T11:09:47;98741.88;;;14.96;100.00
15670;BME280;18524;45.190;5.732;2023-10-31T11:14:37;98744.38;;;15.06;100.00
15670;BME280;18524;45.190;5.732;2023-10-31T11:19:28;98741.09;;;15.20;100.00
15670;BME280;18524;45.190;5.732;2023-10-31T11:24:21;98743.13;;;15.59;100.00
15670;BME280;18524;45.190;5.732;2023-10-31T11:29:13;98740.81;;;15.88;100.00
15670;BME280;18524;45.190;5.732;2023-10-31T11:34:03;98753.72;;;15.75;100.00
15670;BME280;18524;45.190;5.732;2023-10-31T11:39:13;98746.13;;;15.80;100.00
15670;BME280;18524;45.190;5.732;2023-10-31T11:44:03;98744.28;;;15.97;100.00
15670;BME280;18524;45.190;5.732;2023-10-31T11:48:55;98747.38;;;16.25;100.00
15670;BME280;18524;45.190;5.732;2023-10-31T11:53:50;98741.78;;;16.67;100.00
15670;BME280;18524;45.190;5.732;2023-10-31T11:58:40;98743.50;;;16.91;100.00
15670;BME280;18524;45.190;5.732;2023-10-31T12:03:41;98760.75;;;17.41;100.00
15670;BME280;18524;45.190;5.732;2023-10-31T12:08:33;98763.31;;;17.57;100.00
15670;BME280;18524;45.190;5.732;2023-10-31T12:13:24;98760.94;;;17.62;100.00
15670;BME280;18524;45.190;5.732;2023-10-31T12:18:17;98747.56;;;17.56;100.00
15670;BME280;18524;45.190;5.732;2023-10-31T12:23:08;98760.38;;;17.52;100.00
15670;BME280;18524;45.190;5.732;2023-10-31T12:27:58;98765.13;;;17.79;100.00
15670;BME280;18524;45.190;5.732;2023-10-31T12:32:55;98770.44;;;17.79;93.39
15670;BME280;18524;45.190;5.732;2023-10-31T12:37:48;98771.16;;;17.73;86.91
15670;BME280;18524;45.190;5.732;2023-10-31T12:42:40;98777.50;;;17.64;91.61
15670;BME280;18524;45.190;5.732;2023-10-31T12:47:30;98776.97;;;17.46;95.77
15670;BME280;18524;45.190;5.732;2023-10-31T12:52:21;98781.50;;;17.37;100.00
15670;BME280;18524;45.190;5.732;2023-10-31T12:57:11;98784.72;;;17.25;100.00
15670;BME280;18524;45.190;5.732;2023-10-31T13:02:02;98784.31;;;17.13;100.00
15670;BME280;18524;45.190;5.732;2023-10-31T13:07:04;98779.44;;;17.25;97.55
15670;BME280;18524;45.190;5.732;2023-10-31T13:11:57;98779.59;;;17.46;100.00
15670;BME280;18524;45.190;5.732;2023-10-31T13:16:48;98785.81;;;17.61;99.28
15670;BME280;18524;45.190;5.732;2023-10-31T13:21:38;98789.44;;;17.68;100.00
15670;BME280;18524;45.190;5.732;2023-10-31T13:26:30;98803.34;;;17.70;100.00
15670;BME280;18524;45.190;5.732;2023-10-31T13:31:20;98811.81;;;17.66;100.00
15670;BME280;18524;45.190;5.732;2023-10-31T13:36:10;98806.50;;;17.66;100.00
15670;BME280;18524;45.190;5.732;2023-10-31T13:41:01;98826.66;;;17.52;100.00
15670;BME280;18524;45.190;5.732;2023-10-31T13:45:51;98842.28;;;17.39;100.00
15670;BME280;18524;45.190;5.732;2023-10-31T13:50:42;98846.69;;;17.24;100.00
15670;BME280;18524;45.190;5.732;2023-10-31T13:55:32;98839.09;;;17.21;100.00
15670;BME280;18524;45.190;5.732;2023-10-31T14:00:22;98836.97;;;17.16;100.00
15670;BME280;18524;45.190;5.732;2023-10-31T14:05:13;98854.53;;;17.09;100.00
15670;BME280;18524;45.190;5.732;2023-10-31T14:10:03;98858.69;;;17.11;100.00
15670;BME280;18524;45.190;5.732;2023-10-31T14:14:54;98866.47;;;17.05;100.00
15670;BME280;18524;45.190;5.732;2023-10-31T14:19:44;98865.16;;;17.01;100.00
15670;BME280;18524;45.190;5.732;2023-10-31T14:24:35;98869.81;;;16.99;100.00
15670;BME280;18524;45.190;5.732;2023-10-31T14:29:25;98886.56;;;16.91;100.00
15670;BME280;18524;45.190;5.732;2023-10-31T14:34:16;98878.97;;;16.80;100.00
15670;BME280;18524;45.190;5.732;2023-10-31T14:39:06;98876.50;;;16.62;100.00
15670;BME280;18524;45.190;5.732;2023-10-31T14:43:58;98876.19;;;16.49;100.00
15670;BME280;18524;45.190;5.732;2023-10-31T14:48:48;98881.66;;;16.39;100.00
15670;BME280;18524;45.190;5.732;2023-10-31T14:53:39;98885.31;;;16.38;100.00
15670;BME280;18524;45.190;5.732;2023-10-31T14:58:30;98881.81;;;16.46;100.00
15670;BME280;18524;45.190;5.732;2023-10-31T15:03:20;98897.22;;;16.42;100.00
15670;BME280;18524;45.190;5.732;2023-10-31T15:08:12;98893.56;;;16.43;100.00
15670;BME280;18524;45.190;5.732;2023-10-31T15:13:02;98888.94;;;16.45;100.00
15670;BME280;18524;45.190;5.732;2023-10-31T15:17:53;98882.16;;;16.51;100.00
15670;BME280;18524;45.190;5.732;2023-10-31T15:22:43;98881.31;;;16.50;100.00
15670;BME280;18524;45.190;5.732;2023-10-31T15:27:34;98872.25;;;16.37;100.00
15670;BME280;18524;45.190;5.732;2023-10-31T15:32:24;98873.06;;;16.21;100.00
15670;BME280;18524;45.190;5.732;2023-10-31T15:37:14;98882.16;;;16.18;100.00
15670;BME280;18524;45.190;5.732;2023-10-31T15:42:05;98884.97;;;16.17;100.00
15670;BME280;18524;45.190;5.732;2023-10-31T15:46:56;98889.75;;;16.21;100.00
15670;BME280;18524;45.190;5.732;2023-10-31T15:51:46;98901.69;;;16.09;100.00
15670;BME280;18524;45.190;5.732;2023-10-31T15:56:37;98904.78;;;15.88;100.00
15670;BME280;18524;45.190;5.732;2023-10-31T16:01:27;98905.75;;;15.79;100.00
15670;BME280;18524;45.190;5.732;2023-10-31T16:06:18;98917.66;;;15.67;100.00
15670;BME280;18524;45.190;5.732;2023-10-31T16:11:08;98923.88;;;15.58;100.00
15670;BME280;18524;45.190;5.732;2023-10-31T16:15:59;98922.69;;;15.52;100.00
15670;BME280;18524;45.190;5.732;2023-10-31T16:20:50;98931.88;;;15.40;100.00
15670;BME280;18524;45.190;5.732;2023-10-31T16:25:40;98942.28;;;15.33;100.00
15670;BME280;18524;45.190;5.732;2023-10-31T16:30:31;98946.16;;;15.21;100.00
15670;BME280;18524;45.190;5.732;2023-10-31T16:35:21;98951.41;;;15.13;100.00
15670;BME280;18524;45.190;5.732;2023-10-31T16:40:12;98964.25;;;14.82;100.00
15670;BME280;18524;45.190;5.732;2023-10-31T16:45:03;98981.94;;;14.64;100.00
15670;BME280;18524;45.190;5.732;2023-10-31T16:49:56;98987.75;;;14.32;100.00
15670;BME280;18524;45.190;5.732;2023-10-31T16:54:46;98989.25;;;14.34;100.00
15670;BME280;18524;45.190;5.732;2023-10-31T16:59:36;98999.44;;;14.29;100.00
15670;BME280;18524;45.190;5.732;2023-10-31T17:04:27;99006.94;;;14.06;100.00
15670;BME280;18524;45.190;5.732;2023-10-31T17:09:17;99007.06;;;13.87;100.00
15670;BME280;18524;45.190;5.732;2023-10-31T17:14:07;98998.94;;;13.81;100.00
15670;BME280;18524;45.190;5.732;2023-10-31T17:18:58;99007.84;;;13.70;100.00
15670;BME280;18524;45.190;5.732;2023-10-31T17:23:49;99012.94;;;13.54;100.00
15670;BME280;18524;45.190;5.732;2023-10-31T17:28:40;99020.25;;;13.60;100.00
15670;BME280;18524;45.190;5.732;2023-10-31T17:33:30;99019.75;;;13.47;100.00
15670;BME280;18524;45.190;5.732;2023-10-31T17:38:21;99029.47;;;13.46;100.00
15670;BME280;18524;45.190;5.732;2023-10-31T17:43:12;99036.28;;;13.39;100.00
15670;BME280;18524;45.190;5.732;2023-10-31T17:48:03;99031.59;;;13.23;100.00
15670;BME280;18524;45.190;5.732;2023-10-31T17:52:53;99035.03;;;13.33;100.00
15670;BME280;18524;45.190;5.732;2023-10-31T17:57:43;99037.13;;;13.30;100.00
15670;BME280;18524;45.190;5.732;2023-10-31T18:02:34;99041.00;;;13.35;100.00
15670;BME280;18524;45.190;5.732;2023-10-31T18:07:24;99040.34;;;13.24;100.00
15670;BME280;18524;45.190;5.732;2023-10-31T18:12:15;99045.06;;;13.20;100.00
15670;BME280;18524;45.190;5.732;2023-10-31T18:17:07;99041.59;;;13.00;100.00
15670;BME280;18524;45.190;5.732;2023-10-31T18:21:57;99049.91;;;12.96;100.00
15670;BME280;18524;45.190;5.732;2023-10-31T18:26:50;99046.88;;;12.91;100.00
15670;BME280;18524;45.190;5.732;2023-10-31T18:31:41;99048.69;;;12.80;100.00
15670;BME280;18524;45.190;5.732;2023-10-31T18:36:31;99050.25;;;12.64;100.00
15670;BME280;18524;45.190;5.732;2023-10-31T18:41:22;99063.25;;;12.46;100.00
15670;BME280;18524;45.190;5.732;2023-10-31T18:46:12;99062.13;;;12.39;100.00
15670;BME280;18524;45.190;5.732;2023-10-31T18:51:08;99055.91;;;12.40;100.00
15670;BME280;18524;45.190;5.732;2023-10-31T18:55:58;99062.53;;;12.44;100.00
15670;BME280;18524;45.190;5.732;2023-10-31T19:00:49;99066.16;;;12.43;100.00
15670;BME280;18524;45.190;5.732;2023-10-31T19:05:39;99074.19;;;12.41;100.00
15670;BME280;18524;45.190;5.732;2023-10-31T19:10:29;99068.63;;;12.35;100.00
15670;BME280;18524;45.190;5.732;2023-10-31T19:15:20;99071.53;;;12.32;100.00
15670;BME280;18524;45.190;5.732;2023-10-31T19:20:11;99063.94;;;12.29;100.00
15670;BME280;18524;45.190;5.732;2023-10-31T19:25:02;99068.44;;;12.17;100.00
15670;BME280;18524;45.190;5.732;2023-10-31T19:29:53;99053.78;;;12.14;100.00
15670;BME280;18524;45.190;5.732;2023-10-31T19:34:43;99041.47;;;12.15;100.00
15670;BME280;18524;45.190;5.732;2023-10-31T19:39:34;99037.31;;;12.22;100.00
15670;BME280;18524;45.190;5.732;2023-10-31T19:44:24;99030.13;;;12.14;100.00
15670;BME280;18524;45.190;5.732;2023-10-31T19:49:15;99039.09;;;12.02;100.00
15670;BME280;18524;45.190;5.732;2023-10-31T19:54:05;99058.06;;;12.06;100.00
15670;BME280;18524;45.190;5.732;2023-10-31T19:58:56;99054.59;;;12.05;100.00
15670;BME280;18524;45.190;5.732;2023-10-31T20:03:47;99058.47;;;12.01;100.00
15670;BME280;18524;45.190;5.732;2023-10-31T20:08:38;99058.31;;;12.03;100.00
15670;BME280;18524;45.190;5.732;2023-10-31T20:13:29;99062.69;;;11.83;100.00
15670;BME280;18524;45.190;5.732;2023-10-31T20:18:19;99062.53;;;11.84;100.00
15670;BME280;18524;45.190;5.732;2023-10-31T20:23:11;99053.34;;;11.69;100.00
15670;BME280;18524;45.190;5.732;2023-10-31T20:28:01;99063.09;;;11.78;100.00
15670;BME280;18524;45.190;5.732;2023-10-31T20:32:51;99077.47;;;11.84;100.00
15670;BME280;18524;45.190;5.732;2023-10-31T20:37:42;99084.41;;;11.85;100.00
15670;BME280;18524;45.190;5.732;2023-10-31T20:42:32;99081.59;;;11.77;100.00
15670;BME280;18524;45.190;5.732;2023-10-31T20:47:23;99089.78;;;11.83;100.00
15670;BME280;18524;45.190;5.732;2023-10-31T20:52:14;99080.44;;;11.91;100.00
15670;BME280;18524;45.190;5.732;2023-10-31T20:57:04;99081.97;;;11.93;100.00
15670;BME280;18524;45.190;5.732;2023-10-31T21:01:55;99076.16;;;11.89;100.00
15670;BME280;18524;45.190;5.732;2023-10-31T21:06:45;99072.00;;;11.97;100.00
15670;BME280;18524;45.190;5.732;2023-10-31T21:11:35;99061.22;;;12.00;100.00
15670;BME280;18524;45.190;5.732;2023-10-31T21:16:26;99063.44;;;11.95;100.00
15670;BME280;18524;45.190;5.732;2023-10-31T21:21:17;99066.19;;;11.93;100.00
15670;BME280;18524;45.190;5.732;2023-10-31T21:26:07;99072.41;;;11.92;100.00
15670;BME280;18524;45.190;5.732;2023-10-31T21:30:57;99073.13;;;11.94;100.00
15670;BME280;18524;45.190;5.732;2023-10-31T21:35:48;99084.97;;;11.88;100.00
15670;BME280;18524;45.190;5.732;2023-10-31T21:40:38;99083.09;;;12.00;100.00
15670;BME280;18524;45.190;5.732;2023-10-31T21:45:29;99077.75;;;11.81;100.00
15670;BME280;18524;45.190;5.732;2023-10-31T21:50:19;99077.69;;;11.71;100.00
15670;BME280;18524;45.190;5.732;2023-10-31T21:55:10;99080.53;;;11.58;100.00
15670;BME280;18524;45.190;5.732;2023-10-31T22:00:00;99063.25;;;11.56;100.00
15670;BME280;18524;45.190;5.732;2023-10-31T22:04:51;99056.91;;;11.58;100.00
15670;BME280;18524;45.190;5.732;2023-10-31T22:09:41;99068.78;;;11.53;100.00
15670;BME280;18524;45.190;5.732;2023-10-31T22:14:31;99048.97;;;11.49;100.00
15670;BME280;18524;45.190;5.732;2023-10-31T22:19:22;99041.75;;;11.41;100.00
15670;BME280;18524;45.190;5.732;2023-10-31T22:24:12;99046.53;;;11.26;100.00
15670;BME280;18524;45.190;5.732;2023-10-31T22:29:03;99054.47;;;11.15;100.00
15670;BME280;18524;45.190;5.732;2023-10-31T22:33:53;99065.88;;;11.25;100.00
15670;BME280;18524;45.190;5.732;2023-10-31T22:38:44;99056.72;;;11.20;100.00
15670;BME280;18524;45.190;5.732;2023-10-31T22:43:35;99063.09;;;11.06;100.00
15670;BME280;18524;45.190;5.732;2023-10-31T22:48:26;99049.97;;;11.06;100.00
15670;BME280;18524;45.190;5.732;2023-10-31T22:53:16;99042.94;;;11.07;100.00
15670;BME280;18524;45.190;5.732;2023-10-31T22:58:06;99038.22;;;11.01;100.00
15670;BME280;18524;45.190;5.732;2023-10-31T23:02:58;99038.03;;;10.92;100.00
15670;BME280;18524;45.190;5.732;2023-10-31T23:07:48;99039.13;;;10.90;100.00
15670;BME280;18524;45.190;5.732;2023-10-31T23:12:42;99033.81;;;10.80;100.00
15670;BME280;18524;45.190;5.732;2023-10-31T23:17:32;99038.72;;;10.94;100.00
15670;BME280;18524;45.190;5.732;2023-10-31T23:22:23;99036.09;;;10.94;100.00
15670;BME280;18524;45.190;5.732;2023-10-31T23:27:13;99026.25;;;10.87;100.00
15670;BME280;18524;45.190;5.732;2023-10-31T23:32:05;99033.88;;;10.90;100.00
15670;BME280;18524;45.190;5.732;2023-10-31T23:36:55;99020.88;;;10.88;100.00
15670;BME280;18524;45.190;5.732;2023-10-31T23:41:46;99014.59;;;11.01;100.00
15670;BME280;18524;45.190;5.732;2023-10-31T23:46:37;99000.22;;;10.95;100.00
15670;BME280;18524;45.190;5.732;2023-10-31T23:51:27;99004.56;;;10.85;100.00
15670;BME280;18524;45.190;5.732;2023-10-31T23:56:17;99001.00;;;10.86;100.00
